Time;durP1;ratioP1;P1;durP2;ratioP2;P2;SDS_P1;SDS_P2;PMS_P1;PMS_P2;Temp;Humidity;BMP_temperature;BMP_pressure;BME280_temperature;BME280_humidity;BME280_pressure;Samples;Min_cycle;Max_cycle;Signal;HPM_P1;HPM_P2
2021/04/14 00:02:05;;;;;;;10.35;5.72;;;;;;;7.30;49.26;100657.00;4911328;29;20230;-77
2021/04/14 00:04:32;;;;;;;8.30;5.00;;;;;;;7.25;48.84;100651.97;4911117;29;20068;-79
2021/04/14 00:06:59;;;;;;;9.45;5.40;;;;;;;7.16;49.58;100663.81;4910931;29;20172;-74
2021/04/14 00:09:26;;;;;;;8.30;4.85;;;;;;;7.12;49.92;100669.31;4910993;29;20147;-76
2021/04/14 00:11:53;;;;;;;10.15;4.70;;;;;;;7.07;49.94;100659.88;4912791;29;20099;-77
2021/04/14 00:14:21;;;;;;;8.98;4.45;;;;;;;7.01;50.34;100665.44;4911957;29;20056;-76
2021/04/14 00:16:48;;;;;;;10.20;5.10;;;;;;;7.01;50.40;100670.72;4913155;29;20417;-74
2021/04/14 00:19:15;;;;;;;8.60;4.13;;;;;;;7.05;50.62;100666.97;4912696;29;20048;-76
2021/04/14 00:21:41;;;;;;;7.68;4.50;;;;;;;6.84;51.70;100674.19;4913490;29;20048;-73
2021/04/14 00:24:11;;;;;;;6.55;3.38;;;;;;;6.62;52.82;100676.19;4912461;29;20054;-77
2021/04/14 00:26:37;;;;;;;13.20;6.35;;;;;;;6.47;53.08;100683.88;4913233;29;20055;-75
2021/04/14 00:29:04;;;;;;;6.88;3.22;;;;;;;6.55;52.84;100675.63;4913560;29;20142;-73
2021/04/14 00:31:38;;;;;;;7.57;3.67;;;;;;;6.59;52.96;100681.56;4912615;29;20044;-74
2021/04/14 00:34:07;;;;;;;6.60;2.85;;;;;;;6.59;53.04;100669.31;4880310;29;20044;-73
2021/04/14 00:36:34;;;;;;;9.30;4.38;;;;;;;6.46;53.15;100668.19;4912857;29;20656;-75
2021/04/14 00:39:00;;;;;;;8.35;4.18;;;;;;;6.36;52.55;100659.09;4912769;29;20052;-74
2021/04/14 00:41:29;;;;;;;6.50;3.10;;;;;;;6.26;53.82;100662.13;4919738;29;20072;-74
2021/04/14 00:43:56;;;;;;;6.00;3.00;;;;;;;6.25;53.28;100659.63;4918117;29;20059;-77
2021/04/14 00:46:23;;;;;;;6.00;3.17;;;;;;;6.19;53.50;100665.97;4920207;29;20154;-77
2021/04/14 00:48:51;;;;;;;5.65;3.17;;;;;;;6.17;53.39;100667.81;4920134;29;20048;-78
2021/04/14 00:51:19;;;;;;;7.07;3.33;;;;;;;6.17;52.71;100659.97;4920860;29;20131;-75
2021/04/14 00:53:46;;;;;;;6.60;3.13;;;;;;;6.09;53.54;100670.81;4920477;29;20074;-77
2021/04/14 00:56:12;;;;;;;6.68;2.80;;;;;;;6.09;53.70;100656.88;4919693;29;20112;-74
2021/04/14 00:58:38;;;;;;;9.85;4.10;;;;;;;6.19;53.40;100660.72;4918645;29;20059;-76
2021/04/14 01:01:05;;;;;;;8.55;4.70;;;;;;;6.12;53.53;100667.19;4920149;29;20052;-78
2021/04/14 01:03:35;;;;;;;6.97;3.67;;;;;;;6.04;54.40;100664.09;4919922;29;20337;-78
2021/04/14 01:06:06;;;;;;;8.13;4.80;;;;;;;5.98;54.44;100664.38;4921395;29;20054;-77
2021/04/14 01:08:33;;;;;;;10.02;5.22;;;;;;;5.91;55.02;100662.00;4918998;29;20050;-78
2021/04/14 01:11:00;;;;;;;9.68;4.13;;;;;;;5.84;54.62;100663.22;4920934;29;20489;-78
2021/04/14 01:13:26;;;;;;;5.88;2.95;;;;;;;5.89;55.30;100670.88;4918355;29;20055;-74
2021/04/14 01:15:53;;;;;;;7.45;3.03;;;;;;;5.92;55.23;100668.97;4919337;29;20052;-72
2021/04/14 01:18:22;;;;;;;5.50;2.65;;;;;;;5.86;55.56;100669.22;4919789;29;20104;-73
2021/04/14 01:20:49;;;;;;;8.70;3.78;;;;;;;5.67;56.87;100671.00;4919744;29;20147;-72
2021/04/14 01:23:17;;;;;;;9.10;4.50;;;;;;;5.66;57.13;100661.44;4921678;29;20060;-74
2021/04/14 01:25:44;;;;;;;8.48;3.40;;;;;;;5.74;56.52;100665.44;4919501;29;20430;-73
2021/04/14 01:28:13;;;;;;;7.88;3.65;;;;;;;5.74;56.85;100667.16;4924476;29;20040;-79
2021/04/14 01:30:41;;;;;;;9.32;4.60;;;;;;;5.77;56.87;100664.41;4924998;29;20052;-73
2021/04/14 01:33:08;;;;;;;13.95;3.80;;;;;;;5.68;57.05;100665.69;4921637;29;20044;-76
2021/04/14 01:35:35;;;;;;;9.25;3.75;;;;;;;5.71;56.93;100662.09;4920520;29;20045;-74
2021/04/14 01:38:01;;;;;;;7.63;4.53;;;;;;;5.65;57.35;100670.22;4921877;29;20048;-73
2021/04/14 01:40:29;;;;;;;7.85;3.75;;;;;;;5.60;57.08;100672.19;4919917;29;20059;-80
2021/04/14 01:42:56;;;;;;;6.78;3.05;;;;;;;5.57;57.32;100672.34;4919287;29;20112;-77
2021/04/14 01:45:25;;;;;;;6.28;4.43;;;;;;;5.50;57.65;100666.53;4918658;29;20056;-79
2021/04/14 01:47:52;;;;;;;10.07;3.97;;;;;;;5.45;57.69;100663.25;4902421;29;20260;-77
2021/04/14 01:50:18;;;;;;;7.65;4.10;;;;;;;5.43;57.96;100665.94;4919657;29;20066;-75
2021/04/14 01:52:45;;;;;;;6.30;3.65;;;;;;;5.46;58.13;100657.94;4924581;28;20044;-73
2021/04/14 01:55:12;;;;;;;10.52;4.35;;;;;;;5.47;58.12;100654.41;4931180;28;20083;-74
2021/04/14 01:57:40;;;;;;;8.05;3.38;;;;;;;5.46;58.32;100654.50;4931606;28;20036;-80
2021/04/14 02:00:14;;;;;;;12.18;3.72;;;;;;;5.41;58.29;100657.31;4932133;28;20087;-78
2021/04/14 02:02:42;;;;;;;11.30;5.78;;;;;;;5.36;58.59;100659.28;4927833;28;20048;-74
2021/04/14 02:05:09;;;;;;;10.23;3.90;;;;;;;5.25;59.07;100662.38;4919427;29;20127;-79
2021/04/14 02:07:36;;;;;;;8.82;4.35;;;;;;;5.24;59.39;100657.19;4919995;29;20056;-77
2021/04/14 02:10:05;;;;;;;8.60;4.25;;;;;;;5.24;59.49;100658.06;4919350;29;20070;-79
2021/04/14 02:12:32;;;;;;;9.95;4.30;;;;;;;5.17;59.65;100660.09;4918550;29;20055;-79
2021/04/14 02:15:00;;;;;;;9.30;4.43;;;;;;;5.10;59.81;100658.66;4917657;29;20056;-73
2021/04/14 02:17:26;;;;;;;10.20;3.72;;;;;;;5.10;60.24;100656.03;4918317;29;20060;-80
2021/04/14 02:19:52;;;;;;;11.88;4.97;;;;;;;5.13;60.18;100658.53;4918719;29;20052;-76
2021/04/14 02:22:19;;;;;;;10.15;4.32;;;;;;;5.09;60.33;100648.25;4917632;29;20066;-76
2021/04/14 02:24:45;;;;;;;6.40;4.13;;;;;;;5.03;60.54;100649.34;4918277;29;20096;-75
2021/04/14 02:27:12;;;;;;;8.20;4.45;;;;;;;5.08;59.98;100652.63;4917581;29;20059;-75
2021/04/14 02:29:38;;;;;;;9.85;3.38;;;;;;;5.08;60.25;100647.41;4918459;29;20330;-73
2021/04/14 02:32:06;;;;;;;6.78;3.58;;;;;;;5.10;60.17;100652.56;4920999;29;20068;-77
2021/04/14 02:34:33;;;;;;;7.55;4.57;;;;;;;5.10;60.05;100645.56;4928982;28;20050;-76
2021/04/14 02:36:59;;;;;;;6.63;4.45;;;;;;;5.02;60.52;100647.66;4930354;28;20135;-79
2021/04/14 02:39:25;;;;;;;10.15;4.10;;;;;;;5.00;60.27;100646.88;4930318;28;20062;-77
2021/04/14 02:41:52;;;;;;;7.90;3.75;;;;;;;5.01;60.80;100647.75;4930689;28;20079;-80
2021/04/14 02:44:18;;;;;;;9.30;4.80;;;;;;;4.96;61.07;100645.31;4926126;28;20036;-79
2021/04/14 02:46:45;;;;;;;11.02;4.47;;;;;;;4.91;61.76;100639.41;4929167;28;20056;-77
2021/04/14 02:49:12;;;;;;;6.80;4.05;;;;;;;4.83;62.29;100639.75;4928017;28;20176;-76
2021/04/14 02:51:38;;;;;;;9.23;4.45;;;;;;;4.77;62.98;100634.75;4930421;28;20087;-75
2021/04/14 02:54:05;;;;;;;8.25;4.43;;;;;;;4.77;62.85;100635.63;4928011;28;20417;-80
2021/04/14 02:56:32;;;;;;;6.57;4.05;;;;;;;4.76;63.18;100636.53;4929635;28;20051;-76
2021/04/14 02:58:58;;;;;;;10.13;4.57;;;;;;;4.77;62.76;100630.41;4927240;28;20040;-77
2021/04/14 03:01:27;;;;;;;9.38;4.55;;;;;;;4.72;62.90;100631.50;4929318;28;20222;-79
2021/04/14 03:03:53;;;;;;;8.63;4.25;;;;;;;4.73;62.62;100631.41;4928055;28;20056;-74
2021/04/14 03:06:21;;;;;;;10.48;4.85;;;;;;;4.77;62.47;100633.00;4928588;28;20128;-79
2021/04/14 03:08:47;;;;;;;9.00;4.70;;;;;;;4.78;62.31;100623.38;4929725;28;20048;-73
2021/04/14 03:11:14;;;;;;;12.85;4.30;;;;;;;4.77;62.33;100621.66;4930687;28;20087;-73
2021/04/14 03:13:40;;;;;;;10.98;3.60;;;;;;;4.84;62.18;100625.72;4930781;28;20044;-73
2021/04/14 03:16:07;;;;;;;7.68;2.95;;;;;;;4.89;61.93;100615.06;4934032;28;20072;-75
2021/04/14 03:18:34;;;;;;;11.80;3.78;;;;;;;4.85;61.64;100614.34;4933535;28;20043;-73
2021/04/14 03:21:01;;;;;;;9.48;4.13;;;;;;;4.91;61.74;100618.47;4934863;28;20062;-76
2021/04/14 03:23:28;;;;;;;8.50;3.83;;;;;;;4.89;61.75;100623.78;4926312;29;20070;-76
2021/04/14 03:25:55;;;;;;;13.75;4.55;;;;;;;5.05;61.64;100616.09;4923218;29;20111;-79
2021/04/14 03:28:21;;;;;;;11.55;3.58;;;;;;;5.11;61.54;100617.59;4922060;29;20041;-78
2021/04/14 03:30:48;;;;;;;9.63;4.40;;;;;;;5.05;61.93;100620.50;4920656;29;20084;-72
2021/04/14 03:33:14;;;;;;;8.57;3.90;;;;;;;5.10;62.03;100613.31;4921766;29;20221;-73
2021/04/14 03:35:41;;;;;;;12.45;5.30;;;;;;;5.11;62.02;100622.84;4920832;29;20049;-79
2021/04/14 03:38:09;;;;;;;9.95;3.83;;;;;;;5.13;61.88;100621.00;4918180;29;20398;-72
2021/04/14 03:40:36;;;;;;;14.52;7.80;;;;;;;5.12;62.17;100617.53;4919533;29;20056;-73
2021/04/14 03:43:03;;;;;;;12.25;5.72;;;;;;;5.04;62.33;100614.41;4917188;29;20538;-80
2021/04/14 03:45:37;;;;;;;9.02;5.68;;;;;;;5.08;62.53;100618.59;4919773;29;20052;-72
2021/04/14 03:48:04;;;;;;;9.90;5.15;;;;;;;5.04;62.40;100621.41;4920834;29;20415;-71
2021/04/14 03:50:31;;;;;;;12.27;5.70;;;;;;;4.95;62.83;100620.03;4921284;29;20504;-75
2021/04/14 03:53:09;;;;;;;11.48;6.93;;;;;;;4.92;62.74;100623.66;4920341;29;20059;-72
2021/04/14 03:55:36;;;;;;;14.25;8.95;;;;;;;4.82;63.23;100624.94;4920754;29;20067;-74
2021/04/14 03:58:04;;;;;;;17.92;8.07;;;;;;;4.73;63.74;100628.81;4920873;29;20048;-74
2021/04/14 04:00:30;;;;;;;11.65;8.52;;;;;;;4.52;64.93;100635.81;4920329;29;20046;-74
2021/04/14 04:02:56;;;;;;;13.77;9.93;;;;;;;4.49;65.29;100635.91;4918435;29;20048;-75
2021/04/14 04:05:23;;;;;;;20.10;10.77;;;;;;;4.41;65.43;100632.75;4919101;29;20062;-75
2021/04/14 04:07:49;;;;;;;15.90;10.27;;;;;;;4.44;65.82;100637.88;4918661;29;20445;-73
2021/04/14 04:10:16;;;;;;;15.52;9.60;;;;;;;4.40;66.01;100636.28;4918936;29;20054;-73
2021/04/14 04:12:43;;;;;;;14.52;8.98;;;;;;;4.35;66.20;100641.69;4918407;29;20056;-73
2021/04/14 04:15:12;;;;;;;16.75;10.90;;;;;;;4.31;66.49;100640.13;4917101;29;20083;-74
2021/04/14 04:17:40;;;;;;;15.38;10.40;;;;;;;4.29;66.59;100638.50;4917848;29;20052;-73
2021/04/14 04:20:09;;;;;;;16.38;10.07;;;;;;;4.27;66.62;100643.78;4918440;29;20117;-73
2021/04/14 04:22:35;;;;;;;15.93;10.05;;;;;;;4.26;66.87;100634.22;4919261;29;20052;-74
2021/04/14 04:25:03;;;;;;;15.25;9.95;;;;;;;4.28;66.81;100637.63;4919980;29;20117;-74
2021/04/14 04:27:30;;;;;;;15.60;10.23;;;;;;;4.24;67.30;100638.69;4919539;29;20123;-71
2021/04/14 04:29:57;;;;;;;14.30;8.85;;;;;;;4.27;67.13;100646.41;4918063;29;20044;-76
2021/04/14 04:32:23;;;;;;;16.35;8.80;;;;;;;4.30;67.18;100642.81;4916767;29;20070;-72
2021/04/14 04:34:50;;;;;;;13.73;7.45;;;;;;;4.33;67.23;100642.69;4916880;29;20131;-73
2021/04/14 04:37:16;;;;;;;15.13;8.25;;;;;;;4.39;66.83;100650.28;4915694;29;20060;-72
2021/04/14 04:39:43;;;;;;;14.10;8.00;;;;;;;4.44;67.04;100653.56;4914601;29;20106;-72
2021/04/14 04:42:09;;;;;;;24.92;9.35;;;;;;;4.41;67.03;100651.06;4917492;29;20048;-79
2021/04/14 04:44:36;;;;;;;20.27;9.23;;;;;;;4.39;66.39;100656.38;4910722;29;20824;-71
2021/04/14 04:47:04;;;;;;;16.52;9.68;;;;;;;4.29;66.99;100655.03;4913703;29;20051;-73
2021/04/14 04:49:30;;;;;;;17.05;8.15;;;;;;;4.27;67.09;100656.00;4915442;29;20044;-74
2021/04/14 04:51:57;;;;;;;16.30;8.52;;;;;;;4.26;67.20;100655.16;4916094;29;20055;-71
2021/04/14 04:54:23;;;;;;;17.45;9.20;;;;;;;4.25;67.52;100658.69;4916086;29;20059;-80
2021/04/14 04:56:50;;;;;;;16.70;8.23;;;;;;;4.21;67.50;100657.09;4913994;29;20566;-73
2021/04/14 04:59:16;;;;;;;15.68;8.50;;;;;;;3.95;67.41;100658.97;4917374;29;20062;-74
2021/04/14 05:01:43;;;;;;;15.55;8.95;;;;;;;3.91;67.73;100665.22;4916257;29;20054;-71
2021/04/14 05:04:11;;;;;;;18.50;9.80;;;;;;;3.81;68.18;100663.88;4916990;29;20052;-72
2021/04/14 05:06:39;;;;;;;18.90;8.95;;;;;;;3.78;68.00;100662.25;4920048;29;20052;-75
2021/04/14 05:09:06;;;;;;;19.35;10.63;;;;;;;3.70;68.21;100659.03;4915705;29;20071;-72
2021/04/14 05:11:32;;;;;;;20.52;11.98;;;;;;;3.60;68.81;100669.00;4915281;29;20048;-72
2021/04/14 05:13:59;;;;;;;18.70;10.23;;;;;;;3.66;68.83;100665.31;4910812;29;20123;-68
2021/04/14 05:16:25;;;;;;;23.60;10.73;;;;;;;3.78;68.79;100669.19;4913730;29;20432;-70
2021/04/14 05:18:52;;;;;;;17.30;9.00;;;;;;;3.80;68.66;100662.19;4913176;29;20126;-71
2021/04/14 05:21:20;;;;;;;16.13;8.32;;;;;;;3.93;68.72;100668.63;4909168;29;20040;-68
2021/04/14 05:23:48;;;;;;;18.05;9.90;;;;;;;3.98;68.76;100666.69;4911967;29;20139;-69
2021/04/14 05:26:14;;;;;;;14.55;8.32;;;;;;;4.07;68.40;100670.72;4911301;29;20051;-72
2021/04/14 05:28:42;;;;;;;20.17;8.20;;;;;;;4.19;68.22;100659.75;4910735;29;20091;-72
2021/04/14 05:31:08;;;;;;;14.82;8.65;;;;;;;4.21;68.26;100657.09;4911924;29;20139;-69
2021/04/14 05:33:35;;;;;;;16.70;7.47;;;;;;;4.24;68.13;100659.59;4910451;29;20051;-70
2021/04/14 05:36:02;;;;;;;16.00;7.93;;;;;;;4.26;67.91;100659.53;4909907;29;20048;-71
2021/04/14 05:38:30;;;;;;;12.00;7.57;;;;;;;4.26;67.57;100665.59;4909565;29;20056;-71
2021/04/14 05:40:57;;;;;;;11.52;7.03;;;;;;;4.29;67.58;100665.50;4908916;29;20139;-74
2021/04/14 05:43:25;;;;;;;15.30;7.65;;;;;;;4.28;67.54;100660.31;4905922;29;20079;-70
2021/04/14 05:45:54;;;;;;;13.20;6.00;;;;;;;4.31;67.40;100662.81;4907735;29;20048;-71
2021/04/14 05:48:21;;;;;;;12.82;7.00;;;;;;;4.32;67.33;100657.53;4904940;29;20115;-68
2021/04/14 05:50:48;;;;;;;12.93;6.18;;;;;;;4.41;67.36;100656.28;4907049;29;20645;-69
2021/04/14 05:53:14;;;;;;;14.32;6.70;;;;;;;4.52;67.30;100661.97;4904441;29;20044;-69
2021/04/14 05:55:41;;;;;;;13.60;8.02;;;;;;;4.55;67.40;100661.81;4907047;29;20088;-71
2021/04/14 05:58:09;;;;;;;18.98;6.38;;;;;;;4.62;67.05;100657.19;4908614;29;20059;-73
2021/04/14 06:00:36;;;;;;;20.55;11.27;;;;;;;4.60;67.00;100653.78;4910370;29;20062;-73
2021/04/14 06:03:02;;;;;;;23.73;11.52;;;;;;;4.78;66.69;100660.88;4912297;29;20645;-67
2021/04/14 06:05:29;;;;;;;14.35;7.88;;;;;;;4.86;66.73;100659.69;4913863;29;20142;-68
2021/04/14 06:07:55;;;;;;;19.25;10.48;;;;;;;4.95;66.54;100654.94;4913101;29;20088;-70
2021/04/14 06:10:24;;;;;;;19.50;11.05;;;;;;;4.95;66.45;100659.28;4915757;29;20106;-71
2021/04/14 06:12:55;;;;;;;23.20;10.93;;;;;;;4.96;66.50;100658.41;4911453;29;20052;-71
2021/04/14 06:15:25;;;;;;;10.70;6.93;;;;;;;4.95;66.37;100661.91;4912000;29;20196;-68
2021/04/14 06:17:51;;;;;;;13.80;8.00;;;;;;;4.97;66.36;100660.94;4912413;29;20139;-72
2021/04/14 06:20:21;;;;;;;16.15;7.72;;;;;;;4.92;65.85;100665.53;4915157;29;20066;-76
2021/04/14 06:22:47;;;;;;;15.27;7.93;;;;;;;4.85;65.87;100661.47;4914928;29;20055;-71
2021/04/14 06:25:17;;;;;;;14.93;8.02;;;;;;;4.91;66.11;100657.72;4914442;29;20048;-73
2021/04/14 06:27:48;;;;;;;12.80;5.82;;;;;;;4.91;66.14;100665.59;4914911;29;20044;-67
2021/04/14 06:30:18;;;;;;;9.55;6.60;;;;;;;5.02;66.09;100658.13;4917591;29;20052;-75
2021/04/14 06:32:45;;;;;;;9.13;5.00;;;;;;;5.02;66.02;100663.34;4901080;29;20111;-74
2021/04/14 06:35:14;;;;;;;11.43;4.30;;;;;;;4.81;65.38;100659.91;4917095;29;20110;-72
2021/04/14 06:37:41;;;;;;;15.75;4.45;;;;;;;4.64;65.75;100660.59;4934491;29;20090;-71
2021/04/14 06:40:38;;;;;;;10.23;4.18;;;;;;;4.63;66.14;100660.66;4938156;29;20116;-71
2021/04/14 06:43:18;;;;;;;10.45;4.53;;;;;;;4.68;65.73;100662.19;4941053;29;20047;-74
2021/04/14 06:45:49;;;;;;;15.15;5.13;;;;;;;4.58;66.48;100660.84;4925843;29;20119;-71
2021/04/14 06:48:25;;;;;;;17.88;4.90;;;;;;;4.63;66.46;100660.66;4941889;29;20062;-71
2021/04/14 06:51:00;;;;;;;10.73;6.07;;;;;;;4.62;66.30;100658.97;4937103;29;20062;-73
2021/04/14 06:53:35;;;;;;;14.90;6.75;;;;;;;4.65;66.08;100657.06;4932024;29;20048;-71
2021/04/14 06:56:07;;;;;;;7.43;5.13;;;;;;;4.63;65.64;100656.28;4934495;29;20115;-75
2021/04/14 06:58:42;;;;;;;15.70;7.53;;;;;;;4.62;66.56;100658.97;4935013;29;20248;-72
2021/04/14 07:01:13;;;;;;;19.55;8.00;;;;;;;4.58;66.10;100660.84;4937734;29;20048;-75
2021/04/14 07:03:50;;;;;;;13.57;5.90;;;;;;;4.60;66.60;100662.47;4940419;29;20055;-75
2021/04/14 07:06:20;;;;;;;15.85;7.80;;;;;;;4.58;66.57;100656.47;4937976;29;20054;-70
2021/04/14 07:09:01;;;;;;;14.23;5.88;;;;;;;4.67;66.80;100655.22;4935875;29;20536;-75
2021/04/14 07:11:31;;;;;;;16.45;5.07;;;;;;;4.64;66.81;100659.75;4941565;29;20107;-77
2021/04/14 07:13:59;;;;;;;19.20;6.53;;;;;;;4.65;66.71;100658.84;4938811;29;20048;-71
2021/04/14 07:16:39;;;;;;;18.00;6.20;;;;;;;4.67;66.86;100659.63;4938449;29;20148;-74
2021/04/14 07:19:20;;;;;;;10.15;4.30;;;;;;;4.66;65.97;100655.28;4937707;29;20633;-74
2021/04/14 07:21:51;;;;;;;14.95;6.55;;;;;;;4.68;66.07;100651.72;4936984;29;20052;-73
2021/04/14 07:24:26;;;;;;;13.82;7.07;;;;;;;4.66;66.41;100655.28;4938854;29;20048;-70
2021/04/14 07:27:03;;;;;;;9.57;4.63;;;;;;;4.75;66.26;100663.63;4938295;29;20043;-75
2021/04/14 07:29:36;;;;;;;9.88;6.60;;;;;;;4.86;66.11;100652.72;4938536;29;20103;-75
2021/04/14 07:32:15;;;;;;;16.60;7.13;;;;;;;4.79;65.71;100653.88;4921376;29;20104;-74
2021/04/14 07:35:00;;;;;;;16.40;8.48;;;;;;;4.90;66.24;100661.28;4935907;29;20040;-73
2021/04/14 07:37:33;;;;;;;14.02;5.57;;;;;;;4.95;65.95;100661.91;4897176;29;20056;-72
2021/04/14 07:40:16;;;;;;;9.98;5.88;;;;;;;5.00;65.95;100657.34;4897763;29;20048;-72
2021/04/14 07:42:52;;;;;;;18.23;9.15;;;;;;;5.21;65.51;100665.19;4880672;29;20131;-75
2021/04/14 07:45:25;;;;;;;14.63;10.38;;;;;;;5.23;65.48;100658.97;4893835;29;20115;-74
2021/04/14 07:47:57;;;;;;;19.48;10.48;;;;;;;5.29;65.68;100660.47;4890957;29;20044;-74
2021/04/14 07:50:32;;;;;;;16.23;11.98;;;;;;;5.12;65.95;100655.97;4893909;29;20064;-74
2021/04/14 07:52:58;;;;;;;15.68;10.57;;;;;;;5.02;65.73;100654.66;4892776;29;20036;-75
2021/04/14 07:55:31;;;;;;;17.88;10.23;;;;;;;5.11;65.58;100655.13;4892538;29;20191;-73
2021/04/14 07:58:18;;;;;;;26.73;11.40;;;;;;;5.11;65.48;100647.28;4891521;29;20127;-73
2021/04/14 08:00:46;;;;;;;12.75;6.53;;;;;;;5.19;64.26;100653.94;4891307;29;20045;-75
2021/04/14 08:03:23;;;;;;;19.15;7.22;;;;;;;5.14;63.93;100648.91;4913119;29;20055;-75
2021/04/14 08:05:50;;;;;;;16.65;7.47;;;;;;;5.16;64.62;100645.28;4915694;29;20079;-74
2021/04/14 08:08:22;;;;;;;14.00;7.05;;;;;;;5.26;64.04;100652.75;4915348;29;20076;-75
2021/04/14 08:10:59;;;;;;;16.00;5.80;;;;;;;5.30;64.83;100652.53;4919217;29;20063;-74
2021/04/14 08:13:32;;;;;;;15.45;7.03;;;;;;;5.50;64.63;100650.81;4918636;29;20229;-75
2021/04/14 08:15:59;;;;;;;17.00;9.20;;;;;;;5.69;64.47;100641.19;4917912;29;20043;-76
2021/04/14 08:18:30;;;;;;;14.95;7.25;;;;;;;5.70;64.00;100647.28;4914025;29;20107;-72
2021/04/14 08:21:15;;;;;;;20.25;10.23;;;;;;;5.65;64.34;100639.63;4910419;29;20051;-74
2021/04/14 08:23:59;;;;;;;20.98;12.63;;;;;;;5.63;64.19;100640.63;4913112;29;20052;-74
2021/04/14 08:26:31;;;;;;;17.05;10.40;;;;;;;5.58;64.26;100645.22;4917356;29;20056;-72
2021/04/14 08:29:11;;;;;;;12.70;7.63;;;;;;;5.60;64.82;100640.75;4911396;29;20060;-72
2021/04/14 08:31:49;;;;;;;16.83;7.90;;;;;;;5.55;64.33;100631.34;4919023;29;20496;-76
2021/04/14 08:34:27;;;;;;;17.30;9.48;;;;;;;5.52;64.56;100638.47;4919862;29;20594;-72
2021/04/14 08:36:58;;;;;;;19.08;11.15;;;;;;;5.60;65.11;100636.38;4914963;29;20086;-73
2021/04/14 08:39:33;;;;;;;14.95;8.52;;;;;;;5.60;64.35;100630.25;4920949;29;20054;-72
2021/04/14 08:42:15;;;;;;;34.92;17.98;;;;;;;5.53;66.13;100634.97;4916496;29;20040;-75
2021/04/14 08:44:46;;;;;;;15.98;8.88;;;;;;;5.67;65.21;100631.69;4918306;29;20513;-75
2021/04/14 08:47:25;;;;;;;13.73;6.32;;;;;;;5.69;64.61;100635.09;4922126;29;20043;-72
2021/04/14 08:49:59;;;;;;;9.90;4.80;;;;;;;5.67;62.76;100629.06;4916950;29;20059;-75
2021/04/14 08:52:27;;;;;;;15.13;7.18;;;;;;;5.74;63.07;100625.25;4918639;29;20707;-76
2021/04/14 08:54:57;;;;;;;16.65;7.50;;;;;;;5.79;63.35;100625.03;4905252;29;20048;-75
2021/04/14 08:57:24;;;;;;;11.25;6.28;;;;;;;5.89;62.88;100627.16;4906246;29;20050;-73
2021/04/14 08:59:51;;;;;;;11.90;5.65;;;;;;;5.99;62.12;100621.50;4918484;29;20040;-73
2021/04/14 09:02:25;;;;;;;10.65;5.45;;;;;;;5.95;61.15;100620.78;4920592;29;20123;-74
2021/04/14 09:04:54;;;;;;;8.52;4.20;;;;;;;5.94;60.93;100614.69;4920787;29;20051;-75
2021/04/14 09:07:29;;;;;;;6.32;3.10;;;;;;;5.91;59.93;100622.69;4922606;29;20067;-72
2021/04/14 09:09:57;;;;;;;12.32;5.15;;;;;;;5.93;59.40;100623.47;4902673;29;20048;-74
2021/04/14 09:12:38;;;;;;;9.85;4.95;;;;;;;5.92;59.83;100611.28;4923530;29;20059;-71
2021/04/14 09:15:10;;;;;;;11.43;5.75;;;;;;;6.12;60.01;100612.13;4920676;29;20112;-75
2021/04/14 09:17:43;;;;;;;8.57;4.30;;;;;;;6.13;59.18;100608.59;4926012;29;20040;-74
2021/04/14 09:20:21;;;;;;;9.90;4.78;;;;;;;6.20;60.33;100603.91;4919423;29;20058;-74
2021/04/14 09:23:00;;;;;;;9.57;6.00;;;;;;;6.32;59.08;100605.94;4903151;29;20068;-78
2021/04/14 09:25:33;;;;;;;7.80;5.18;;;;;;;6.48;59.23;100600.75;4920881;29;20079;-74
2021/04/14 09:28:02;;;;;;;11.77;5.20;;;;;;;6.54;58.79;100599.63;4889475;29;20129;-74
2021/04/14 09:30:35;;;;;;;5.95;4.20;;;;;;;6.60;57.85;100600.13;4921106;29;20052;-76
2021/04/14 09:33:16;;;;;;;11.45;4.55;;;;;;;6.37;58.85;100605.69;4919310;29;20048;-75
2021/04/14 09:36:02;;;;;;;13.00;4.93;;;;;;;6.29;59.09;100598.19;4917188;29;20098;-76
2021/04/14 09:38:40;;;;;;;7.32;4.28;;;;;;;6.32;58.64;100592.81;4916132;29;20510;-77
2021/04/14 09:41:33;;;;;;;7.88;4.53;;;;;;;6.37;58.65;100585.53;4919117;29;20048;-76
2021/04/14 09:44:14;;;;;;;14.00;7.03;;;;;;;6.34;59.08;100595.34;4912243;29;20047;-79
2021/04/14 09:46:53;;;;;;;13.30;6.78;;;;;;;6.64;59.51;100592.94;4913269;29;20059;-76
2021/04/14 09:49:35;;;;;;;6.22;2.90;;;;;;;7.15;58.91;100588.56;4912193;29;20048;-75
2021/04/14 09:52:21;;;;;;;5.47;3.22;;;;;;;7.42;58.36;100593.28;4912249;29;20293;-77
2021/04/14 09:54:49;;;;;;;8.70;3.63;;;;;;;7.35;58.29;100599.81;4897475;29;20312;-77
2021/04/14 09:57:19;;;;;;;17.60;9.68;;;;;;;7.20;58.57;100598.81;4912978;29;20051;-72
2021/04/14 09:59:47;;;;;;;19.65;10.05;;;;;;;7.00;58.77;100603.34;4909773;29;20036;-74
2021/04/14 10:02:16;;;;;;;23.70;10.68;;;;;;;7.05;58.60;100589.97;4911493;29;20091;-76
2021/04/14 10:04:46;;;;;;;22.95;10.50;;;;;;;6.97;59.01;100600.03;4996134;23;20116;-74
2021/04/14 10:07:18;;;;;;;13.00;6.28;;;;;;;7.17;59.07;100596.38;4949407;28;20031;-73
2021/04/14 10:09:46;;;;;;;12.80;5.90;;;;;;;7.17;58.89;100601.63;4967230;28;20035;-72
2021/04/14 10:12:16;;;;;;;8.90;4.32;;;;;;;7.25;59.07;100597.66;4948892;28;20098;-73
2021/04/14 10:14:47;;;;;;;10.63;6.05;;;;;;;7.14;58.59;100584.25;4966218;28;20085;-74
2021/04/14 10:17:17;;;;;;;13.13;6.40;;;;;;;6.85;59.09;100596.28;4967192;28;20039;-77
2021/04/14 10:19:44;;;;;;;10.85;7.55;;;;;;;6.79;59.32;100599.19;4956307;28;20035;-76
2021/04/14 10:22:18;;;;;;;11.85;6.72;;;;;;;6.70;60.03;100593.50;4957890;28;20045;-75
2021/04/14 10:24:45;;;;;;;17.25;11.57;;;;;;;6.54;59.46;100591.75;4953551;28;20051;-74
2021/04/14 10:27:23;;;;;;;9.25;6.82;;;;;;;6.45;60.28;100593.88;4932580;28;20036;-75
2021/04/14 10:29:49;;;;;;;16.13;11.50;;;;;;;6.38;60.50;100602.16;4935738;28;20130;-75
2021/04/14 10:32:20;;;;;;;15.00;8.27;;;;;;;6.35;60.92;100594.41;4936954;28;20063;-75
2021/04/14 10:34:47;;;;;;;14.30;9.20;;;;;;;6.34;60.44;100596.19;4935848;28;20048;-77
2021/04/14 10:37:17;;;;;;;9.52;7.15;;;;;;;6.21;60.32;100590.72;4936973;29;20058;-77
2021/04/14 10:39:45;;;;;;;13.80;8.32;;;;;;;6.06;60.12;100592.28;4919841;28;20311;-75
2021/04/14 10:42:15;;;;;;;14.48;7.60;;;;;;;5.92;61.16;100586.81;4936441;28;20055;-75
2021/04/14 10:44:45;;;;;;;13.05;8.32;;;;;;;5.91;61.61;100587.75;4939029;28;20047;-75
2021/04/14 10:47:17;;;;;;;20.27;9.18;;;;;;;6.00;61.90;100586.50;4935404;28;20215;-77
2021/04/14 10:49:47;;;;;;;14.63;8.20;;;;;;;6.01;61.93;100589.03;4916186;28;20084;-75
2021/04/14 10:52:23;;;;;;;10.05;7.75;;;;;;;6.13;62.17;100587.59;4917965;28;20055;-73
2021/04/14 10:54:52;;;;;;;16.50;8.45;;;;;;;6.13;61.92;100583.19;4910855;28;20122;-73
2021/04/14 10:57:27;;;;;;;16.83;9.35;;;;;;;6.15;62.46;100580.50;4918713;29;20116;-72
2021/04/14 11:00:00;;;;;;;13.48;8.25;;;;;;;6.24;62.09;100580.06;4915190;29;20056;-74
2021/04/14 11:02:28;;;;;;;11.45;7.75;;;;;;;6.20;62.45;100577.66;4908762;29;20084;-72
2021/04/14 11:04:55;;;;;;;12.10;8.60;;;;;;;6.33;62.39;100578.75;4911315;29;20071;-71
2021/04/14 11:07:27;;;;;;;13.27;8.82;;;;;;;6.25;62.98;100584.38;4914149;29;20063;-71
2021/04/14 11:10:01;;;;;;;13.50;9.00;;;;;;;6.06;62.93;100584.41;4900722;29;20056;-70
2021/04/14 11:12:30;;;;;;;18.48;12.02;;;;;;;5.98;63.55;100583.09;4920740;29;20135;-78
2021/04/14 11:15:01;;;;;;;15.30;10.30;;;;;;;5.99;64.02;100590.03;4922180;29;20076;-72
2021/04/14 11:17:32;;;;;;;15.60;10.45;;;;;;;5.88;64.05;100588.75;4917164;29;20112;-68
2021/04/14 11:20:01;;;;;;;16.83;11.50;;;;;;;5.94;63.99;100583.22;4912526;29;20059;-72
2021/04/14 11:22:39;;;;;;;22.92;13.18;;;;;;;6.10;64.55;100583.38;4909973;29;20095;-71
2021/04/14 11:25:08;;;;;;;43.22;16.15;;;;;;;6.37;63.98;100582.06;4908867;29;20044;-71
2021/04/14 11:27:35;;;;;;;14.23;10.93;;;;;;;6.20;63.69;100577.66;4909850;29;20056;-73
2021/04/14 11:30:13;;;;;;;39.00;15.90;;;;;;;6.09;63.98;100575.56;4911776;29;20123;-67
2021/04/14 11:32:39;;;;;;;16.35;10.82;;;;;;;6.00;63.59;100571.63;4909042;29;20052;-73
2021/04/14 11:35:09;;;;;;;11.73;8.25;;;;;;;5.96;63.74;100577.06;4912964;29;20242;-71
2021/04/14 11:37:47;;;;;;;12.00;8.50;;;;;;;5.92;63.02;100577.22;4950599;29;20287;-72
2021/04/14 11:40:47;;;;;;;10.35;7.80;;;;;;;5.81;63.90;100571.59;4945827;29;20051;-73